sensor_id;sensor_type;location;lat;lon;timestamp;P1;durP1;ratioP1;P2;durP2;ratioP2
8171;SDS011;4127;47.908;10.850;2022-12-11T00:00:07;20.10;;;15.57;;
8171;SDS011;4127;47.908;10.850;2022-12-11T00:02:35;21.50;;;16.33;;
8171;SDS011;4127;47.908;10.850;2022-12-11T00:05:02;22.00;;;17.23;;
8171;SDS011;4127;47.908;10.850;2022-12-11T00:07:29;22.70;;;16.90;;
8171;SDS011;4127;47.908;10.850;2022-12-11T00:09:55;24.07;;;18.27;;
8171;SDS011;4127;47.908;10.850;2022-12-11T00:12:22;23.83;;;17.60;;
8171;SDS011;4127;47.908;10.850;2022-12-11T00:14:49;23.83;;;18.37;;
8171;SDS011;4127;47.908;10.850;2022-12-11T00:17:16;25.20;;;19.23;;
8171;SDS011;4127;47.908;10.850;2022-12-11T00:19:42;23.20;;;16.80;;
8171;SDS011;4127;47.908;10.850;2022-12-11T00:22:09;25.83;;;18.37;;
8171;SDS011;4127;47.908;10.850;2022-12-11T00:24:36;25.27;;;19.67;;
8171;SDS011;4127;47.908;10.850;2022-12-11T00:27:03;26.93;;;20.70;;
8171;SDS011;4127;47.908;10.850;2022-12-11T00:29:29;21.67;;;16.67;;
8171;SDS011;4127;47.908;10.850;2022-12-11T00:31:56;23.73;;;17.47;;
8171;SDS011;4127;47.908;10.850;2022-12-11T00:34:23;22.10;;;17.03;;
8171;SDS011;4127;47.908;10.850;2022-12-11T00:36:50;21.23;;;16.50;;
8171;SDS011;4127;47.908;10.850;2022-12-11T00:39:18;20.33;;;15.43;;
8171;SDS011;4127;47.908;10.850;2022-12-11T00:41:44;19.27;;;14.67;;
8171;SDS011;4127;47.908;10.850;2022-12-11T00:44:11;20.87;;;15.57;;
8171;SDS011;4127;47.908;10.850;2022-12-11T00:46:38;16.73;;;13.67;;
8171;SDS011;4127;47.908;10.850;2022-12-11T00:49:04;18.10;;;13.63;;
8171;SDS011;4127;47.908;10.850;2022-12-11T00:51:31;17.20;;;12.93;;
8171;SDS011;4127;47.908;10.850;2022-12-11T00:53:58;17.20;;;13.17;;
8171;SDS011;4127;47.908;10.850;2022-12-11T00:56:25;17.67;;;14.13;;
8171;SDS011;4127;47.908;10.850;2022-12-11T00:58:52;16.47;;;13.33;;
8171;SDS011;4127;47.908;10.850;2022-12-11T01:01:20;16.37;;;12.37;;
8171;SDS011;4127;47.908;10.850;2022-12-11T01:03:48;15.30;;;12.37;;
8171;SDS011;4127;47.908;10.850;2022-12-11T01:06:19;16.83;;;12.87;;
8171;SDS011;4127;47.908;10.850;2022-12-11T01:08:48;16.10;;;13.33;;
8171;SDS011;4127;47.908;10.850;2022-12-11T01:11:35;14.37;;;11.00;;
8171;SDS011;4127;47.908;10.850;2022-12-11T01:14:03;15.63;;;12.13;;
8171;SDS011;4127;47.908;10.850;2022-12-11T01:16:30;15.93;;;12.33;;
8171;SDS011;4127;47.908;10.850;2022-12-11T01:18:57;14.60;;;11.77;;
8171;SDS011;4127;47.908;10.850;2022-12-11T01:21:24;14.80;;;12.30;;
8171;SDS011;4127;47.908;10.850;2022-12-11T01:23:51;14.80;;;11.33;;
8171;SDS011;4127;47.908;10.850;2022-12-11T01:26:17;14.80;;;11.13;;
8171;SDS011;4127;47.908;10.850;2022-12-11T01:28:47;13.63;;;11.10;;
8171;SDS011;4127;47.908;10.850;2022-12-11T01:31:15;16.07;;;11.80;;
8171;SDS011;4127;47.908;10.850;2022-12-11T01:33:43;14.03;;;10.97;;
8171;SDS011;4127;47.908;10.850;2022-12-11T01:36:14;13.13;;;11.00;;
8171;SDS011;4127;47.908;10.850;2022-12-11T01:38:46;13.17;;;10.87;;
8171;SDS011;4127;47.908;10.850;2022-12-11T01:41:15;17.00;;;12.00;;
8171;SDS011;4127;47.908;10.850;2022-12-11T01:43:56;15.77;;;11.17;;
8171;SDS011;4127;47.908;10.850;2022-12-11T01:46:29;14.70;;;11.70;;
8171;SDS011;4127;47.908;10.850;2022-12-11T01:48:57;15.30;;;12.27;;
8171;SDS011;4127;47.908;10.850;2022-12-11T01:51:26;18.03;;;14.00;;
8171;SDS011;4127;47.908;10.850;2022-12-11T01:53:58;15.17;;;12.93;;
8171;SDS011;4127;47.908;10.850;2022-12-11T01:56:29;15.83;;;12.10;;
8171;SDS011;4127;47.908;10.850;2022-12-11T01:58:58;17.30;;;14.33;;
8171;SDS011;4127;47.908;10.850;2022-12-11T02:01:34;20.17;;;14.67;;
8171;SDS011;4127;47.908;10.850;2022-12-11T02:04:02;18.57;;;14.57;;
8171;SDS011;4127;47.908;10.850;2022-12-11T02:08:58;19.67;;;14.97;;
8171;SDS011;4127;47.908;10.850;2022-12-11T02:11:29;19.67;;;15.10;;
8171;SDS011;4127;47.908;10.850;2022-12-11T02:14:31;20.27;;;15.03;;
8171;SDS011;4127;47.908;10.850;2022-12-11T02:17:20;19.37;;;13.87;;
8171;SDS011;4127;47.908;10.850;2022-12-11T02:33:44;21.03;;;16.17;;
8171;SDS011;4127;47.908;10.850;2022-12-11T02:36:16;20.60;;;15.27;;
8171;SDS011;4127;47.908;10.850;2022-12-11T02:38:44;22.47;;;16.87;;
8171;SDS011;4127;47.908;10.850;2022-12-11T02:41:17;21.37;;;15.60;;
8171;SDS011;4127;47.908;10.850;2022-12-11T02:43:46;25.80;;;16.57;;
8171;SDS011;4127;47.908;10.850;2022-12-11T02:46:14;21.23;;;16.60;;
8171;SDS011;4127;47.908;10.850;2022-12-11T02:48:44;21.17;;;15.83;;
8171;SDS011;4127;47.908;10.850;2022-12-11T02:51:14;21.87;;;16.63;;
8171;SDS011;4127;47.908;10.850;2022-12-11T02:53:43;21.33;;;15.90;;
8171;SDS011;4127;47.908;10.850;2022-12-11T02:56:15;22.17;;;15.90;;
8171;SDS011;4127;47.908;10.850;2022-12-11T02:58:49;22.40;;;16.50;;
8171;SDS011;4127;47.908;10.850;2022-12-11T03:01:24;23.30;;;16.67;;
8171;SDS011;4127;47.908;10.850;2022-12-11T03:03:52;22.53;;;16.13;;
8171;SDS011;4127;47.908;10.850;2022-12-11T03:06:21;23.83;;;17.67;;
8171;SDS011;4127;47.908;10.850;2022-12-11T03:08:52;22.53;;;16.60;;
8171;SDS011;4127;47.908;10.850;2022-12-11T03:11:19;21.43;;;16.07;;
8171;SDS011;4127;47.908;10.850;2022-12-11T03:13:45;21.60;;;15.93;;
8171;SDS011;4127;47.908;10.850;2022-12-11T03:22:02;23.10;;;17.03;;
8171;SDS011;4127;47.908;10.850;2022-12-11T03:24:41;21.33;;;15.87;;
8171;SDS011;4127;47.908;10.850;2022-12-11T03:30:05;19.40;;;15.70;;
8171;SDS011;4127;47.908;10.850;2022-12-11T03:32:35;21.07;;;15.37;;
8171;SDS011;4127;47.908;10.850;2022-12-11T03:35:08;23.27;;;16.40;;
8171;SDS011;4127;47.908;10.850;2022-12-11T03:37:51;21.27;;;16.23;;
8171;SDS011;4127;47.908;10.850;2022-12-11T03:40:21;20.00;;;15.40;;
8171;SDS011;4127;47.908;10.850;2022-12-11T03:42:51;19.90;;;15.13;;
8171;SDS011;4127;47.908;10.850;2022-12-11T03:45:21;21.10;;;16.00;;
8171;SDS011;4127;47.908;10.850;2022-12-11T03:47:51;21.03;;;15.57;;
8171;SDS011;4127;47.908;10.850;2022-12-11T03:50:20;19.53;;;14.90;;
8171;SDS011;4127;47.908;10.850;2022-12-11T03:52:49;20.53;;;15.70;;
8171;SDS011;4127;47.908;10.850;2022-12-11T03:55:17;20.57;;;15.70;;
8171;SDS011;4127;47.908;10.850;2022-12-11T03:57:46;20.80;;;16.03;;
8171;SDS011;4127;47.908;10.850;2022-12-11T04:00:14;21.37;;;16.93;;
8171;SDS011;4127;47.908;10.850;2022-12-11T04:02:43;19.53;;;15.13;;
8171;SDS011;4127;47.908;10.850;2022-12-11T04:05:10;20.60;;;16.07;;
8171;SDS011;4127;47.908;10.850;2022-12-11T04:07:37;22.83;;;16.73;;
8171;SDS011;4127;47.908;10.850;2022-12-11T04:10:05;24.03;;;16.93;;
8171;SDS011;4127;47.908;10.850;2022-12-11T04:12:32;20.37;;;15.97;;
8171;SDS011;4127;47.908;10.850;2022-12-11T04:14:59;21.20;;;16.10;;
8171;SDS011;4127;47.908;10.850;2022-12-11T04:17:29;20.33;;;15.00;;
8171;SDS011;4127;47.908;10.850;2022-12-11T04:20:15;23.00;;;16.57;;
8171;SDS011;4127;47.908;10.850;2022-12-11T04:23:04;22.17;;;15.80;;
8171;SDS011;4127;47.908;10.850;2022-12-11T04:25:49;21.33;;;14.87;;
8171;SDS011;4127;47.908;10.850;2022-12-11T04:28:16;18.60;;;15.47;;
8171;SDS011;4127;47.908;10.850;2022-12-11T04:30:46;21.50;;;15.90;;
8171;SDS011;4127;47.908;10.850;2022-12-11T04:33:14;20.23;;;15.70;;
8171;SDS011;4127;47.908;10.850;2022-12-11T04:35:41;20.20;;;15.63;;
8171;SDS011;4127;47.908;10.850;2022-12-11T04:38:08;20.97;;;17.20;;
8171;SDS011;4127;47.908;10.850;2022-12-11T04:40:35;21.33;;;15.43;;
8171;SDS011;4127;47.908;10.850;2022-12-11T04:43:01;18.90;;;14.50;;
8171;SDS011;4127;47.908;10.850;2022-12-11T04:45:28;22.57;;;15.23;;
8171;SDS011;4127;47.908;10.850;2022-12-11T04:47:55;18.60;;;14.47;;
8171;SDS011;4127;47.908;10.850;2022-12-11T04:50:22;18.87;;;14.57;;
8171;SDS011;4127;47.908;10.850;2022-12-11T04:52:48;17.90;;;14.43;;
8171;SDS011;4127;47.908;10.850;2022-12-11T04:55:15;19.97;;;15.63;;
8171;SDS011;4127;47.908;10.850;2022-12-11T04:57:42;18.40;;;14.27;;
8171;SDS011;4127;47.908;10.850;2022-12-11T05:00:09;21.13;;;16.63;;
8171;SDS011;4127;47.908;10.850;2022-12-11T05:02:38;19.47;;;15.27;;
8171;SDS011;4127;47.908;10.850;2022-12-11T05:05:07;18.03;;;14.07;;
8171;SDS011;4127;47.908;10.850;2022-12-11T05:07:36;18.10;;;14.63;;
8171;SDS011;4127;47.908;10.850;2022-12-11T05:10:03;19.67;;;15.20;;
8171;SDS011;4127;47.908;10.850;2022-12-11T05:12:31;20.23;;;14.90;;
8171;SDS011;4127;47.908;10.850;2022-12-11T05:14:58;22.50;;;16.43;;
8171;SDS011;4127;47.908;10.850;2022-12-11T05:17:25;18.77;;;14.60;;
8171;SDS011;4127;47.908;10.850;2022-12-11T05:19:52;19.50;;;15.53;;
8171;SDS011;4127;47.908;10.850;2022-12-11T05:22:18;19.03;;;14.67;;
8171;SDS011;4127;47.908;10.850;2022-12-11T05:24:45;20.50;;;16.13;;
8171;SDS011;4127;47.908;10.850;2022-12-11T05:27:12;20.63;;;15.50;;
8171;SDS011;4127;47.908;10.850;2022-12-11T05:29:38;19.63;;;14.70;;
8171;SDS011;4127;47.908;10.850;2022-12-11T05:32:05;19.20;;;15.13;;
8171;SDS011;4127;47.908;10.850;2022-12-11T05:34:32;19.93;;;14.63;;
8171;SDS011;4127;47.908;10.850;2022-12-11T05:36:59;18.60;;;13.83;;
8171;SDS011;4127;47.908;10.850;2022-12-11T05:39:26;18.77;;;14.00;;
8171;SDS011;4127;47.908;10.850;2022-12-11T05:41:53;19.47;;;14.50;;
8171;SDS011;4127;47.908;10.850;2022-12-11T05:44:20;18.60;;;14.13;;
8171;SDS011;4127;47.908;10.850;2022-12-11T05:46:46;17.20;;;13.10;;
8171;SDS011;4127;47.908;10.850;2022-12-11T05:49:14;18.03;;;13.37;;
8171;SDS011;4127;47.908;10.850;2022-12-11T05:51:45;16.63;;;13.03;;
8171;SDS011;4127;47.908;10.850;2022-12-11T05:54:12;16.67;;;13.37;;
8171;SDS011;4127;47.908;10.850;2022-12-11T05:56:39;15.20;;;11.97;;
8171;SDS011;4127;47.908;10.850;2022-12-11T05:59:06;16.37;;;12.27;;
8171;SDS011;4127;47.908;10.850;2022-12-11T06:01:34;15.80;;;11.67;;
8171;SDS011;4127;47.908;10.850;2022-12-11T06:04:02;19.27;;;14.23;;
8171;SDS011;4127;47.908;10.850;2022-12-11T06:06:30;19.87;;;14.63;;
8171;SDS011;4127;47.908;10.850;2022-12-11T06:08:58;16.30;;;13.13;;
8171;SDS011;4127;47.908;10.850;2022-12-11T06:11:27;16.90;;;12.77;;
8171;SDS011;4127;47.908;10.850;2022-12-11T06:13:55;17.27;;;14.33;;
8171;SDS011;4127;47.908;10.850;2022-12-11T06:16:22;17.43;;;14.00;;
8171;SDS011;4127;47.908;10.850;2022-12-11T06:18:49;18.93;;;13.67;;
8171;SDS011;4127;47.908;10.850;2022-12-11T06:21:22;16.43;;;13.37;;
8171;SDS011;4127;47.908;10.850;2022-12-11T06:23:51;16.53;;;12.60;;
8171;SDS011;4127;47.908;10.850;2022-12-11T06:26:19;15.57;;;12.37;;
8171;SDS011;4127;47.908;10.850;2022-12-11T06:28:46;14.47;;;11.50;;
8171;SDS011;4127;47.908;10.850;2022-12-11T06:31:13;15.20;;;11.13;;
8171;SDS011;4127;47.908;10.850;2022-12-11T06:33:41;14.23;;;11.40;;
8171;SDS011;4127;47.908;10.850;2022-12-11T06:36:09;14.17;;;10.90;;
8171;SDS011;4127;47.908;10.850;2022-12-11T06:38:37;18.17;;;13.87;;
8171;SDS011;4127;47.908;10.850;2022-12-11T06:41:05;16.60;;;12.63;;
8171;SDS011;4127;47.908;10.850;2022-12-11T06:43:33;19.93;;;14.33;;
8171;SDS011;4127;47.908;10.850;2022-12-11T06:46:04;19.97;;;14.57;;
8171;SDS011;4127;47.908;10.850;2022-12-11T06:48:31;20.40;;;13.37;;
8171;SDS011;4127;47.908;10.850;2022-12-11T06:50:58;15.83;;;12.13;;
8171;SDS011;4127;47.908;10.850;2022-12-11T06:53:29;16.73;;;12.53;;
8171;SDS011;4127;47.908;10.850;2022-12-11T06:56:00;14.57;;;11.60;;
8171;SDS011;4127;47.908;10.850;2022-12-11T06:58:32;14.63;;;11.97;;
8171;SDS011;4127;47.908;10.850;2022-12-11T07:00:59;14.13;;;11.40;;
8171;SDS011;4127;47.908;10.850;2022-12-11T07:03:27;14.37;;;11.70;;
8171;SDS011;4127;47.908;10.850;2022-12-11T07:05:58;14.33;;;11.67;;
8171;SDS011;4127;47.908;10.850;2022-12-11T07:08:27;15.73;;;11.70;;
8171;SDS011;4127;47.908;10.850;2022-12-11T07:10:54;12.27;;;10.10;;
8171;SDS011;4127;47.908;10.850;2022-12-11T07:13:26;12.17;;;9.37;;
8171;SDS011;4127;47.908;10.850;2022-12-11T07:15:53;12.53;;;9.70;;
8171;SDS011;4127;47.908;10.850;2022-12-11T07:18:20;13.23;;;9.67;;
8171;SDS011;4127;47.908;10.850;2022-12-11T07:20:46;17.23;;;12.53;;
8171;SDS011;4127;47.908;10.850;2022-12-11T07:23:13;20.67;;;13.47;;
8171;SDS011;4127;47.908;10.850;2022-12-11T07:25:40;17.00;;;13.10;;
8171;SDS011;4127;47.908;10.850;2022-12-11T07:28:07;18.33;;;13.23;;
8171;SDS011;4127;47.908;10.850;2022-12-11T07:30:41;22.03;;;14.97;;
8171;SDS011;4127;47.908;10.850;2022-12-11T07:33:08;22.73;;;14.70;;
8171;SDS011;4127;47.908;10.850;2022-12-11T07:35:35;17.63;;;13.53;;
8171;SDS011;4127;47.908;10.850;2022-12-11T07:38:04;15.63;;;12.30;;
8171;SDS011;4127;47.908;10.850;2022-12-11T07:40:32;13.20;;;10.30;;
8171;SDS011;4127;47.908;10.850;2022-12-11T07:42:59;14.27;;;11.60;;
8171;SDS011;4127;47.908;10.850;2022-12-11T07:45:26;14.67;;;11.57;;
8171;SDS011;4127;47.908;10.850;2022-12-11T07:47:52;13.43;;;10.70;;
8171;SDS011;4127;47.908;10.850;2022-12-11T07:50:19;16.20;;;12.90;;
8171;SDS011;4127;47.908;10.850;2022-12-11T07:52:46;14.33;;;12.53;;
8171;SDS011;4127;47.908;10.850;2022-12-11T07:55:12;13.90;;;11.63;;
8171;SDS011;4127;47.908;10.850;2022-12-11T07:57:39;15.40;;;11.77;;
8171;SDS011;4127;47.908;10.850;2022-12-11T08:00:06;15.83;;;11.87;;
8171;SDS011;4127;47.908;10.850;2022-12-11T08:02:34;15.57;;;12.20;;
8171;SDS011;4127;47.908;10.850;2022-12-11T08:05:03;18.00;;;13.90;;
8171;SDS011;4127;47.908;10.850;2022-12-11T08:23:54;12.17;;;8.57;;
8171;SDS011;4127;47.908;10.850;2022-12-11T08:28:51;13.20;;;8.87;;
8171;SDS011;4127;47.908;10.850;2022-12-11T08:31:18;12.63;;;9.83;;
8171;SDS011;4127;47.908;10.850;2022-12-11T08:33:46;13.83;;;10.63;;
8171;SDS011;4127;47.908;10.850;2022-12-11T08:36:15;12.17;;;9.40;;
8171;SDS011;4127;47.908;10.850;2022-12-11T08:38:48;12.97;;;9.83;;
8171;SDS011;4127;47.908;10.850;2022-12-11T08:41:16;13.20;;;10.40;;
8171;SDS011;4127;47.908;10.850;2022-12-11T08:43:45;13.97;;;10.53;;
8171;SDS011;4127;47.908;10.850;2022-12-11T08:46:13;15.53;;;10.73;;
8171;SDS011;4127;47.908;10.850;2022-12-11T08:48:41;17.73;;;11.20;;
8171;SDS011;4127;47.908;10.850;2022-12-11T08:51:12;21.07;;;11.90;;
8171;SDS011;4127;47.908;10.850;2022-12-11T08:53:41;16.93;;;11.03;;
8171;SDS011;4127;47.908;10.850;2022-12-11T08:56:09;18.90;;;11.73;;
8171;SDS011;4127;47.908;10.850;2022-12-11T08:58:37;13.00;;;9.33;;
8171;SDS011;4127;47.908;10.850;2022-12-11T09:01:05;12.07;;;9.87;;
8171;SDS011;4127;47.908;10.850;2022-12-11T09:03:43;13.27;;;9.67;;
8171;SDS011;4127;47.908;10.850;2022-12-11T09:06:11;17.83;;;11.23;;
8171;SDS011;4127;47.908;10.850;2022-12-11T09:08:39;17.50;;;11.77;;
8171;SDS011;4127;47.908;10.850;2022-12-11T09:11:13;19.03;;;13.53;;
8171;SDS011;4127;47.908;10.850;2022-12-11T09:13:45;24.47;;;16.80;;
8171;SDS011;4127;47.908;10.850;2022-12-11T09:16:12;26.57;;;18.90;;
8171;SDS011;4127;47.908;10.850;2022-12-11T09:18:41;20.10;;;15.47;;
8171;SDS011;4127;47.908;10.850;2022-12-11T09:21:11;13.77;;;10.97;;
8171;SDS011;4127;47.908;10.850;2022-12-11T09:23:43;12.97;;;8.70;;
8171;SDS011;4127;47.908;10.850;2022-12-11T09:26:12;9.90;;;7.70;;
8171;SDS011;4127;47.908;10.850;2022-12-11T09:28:41;10.53;;;9.43;;
8171;SDS011;4127;47.908;10.850;2022-12-11T09:31:22;11.87;;;9.37;;
8171;SDS011;4127;47.908;10.850;2022-12-11T09:33:55;8.80;;;7.47;;
8171;SDS011;4127;47.908;10.850;2022-12-11T09:36:23;9.27;;;7.80;;
8171;SDS011;4127;47.908;10.850;2022-12-11T09:38:50;9.50;;;7.53;;
8171;SDS011;4127;47.908;10.850;2022-12-11T09:43:58;11.10;;;8.67;;
8171;SDS011;4127;47.908;10.850;2022-12-11T09:46:26;10.10;;;8.07;;
8171;SDS011;4127;47.908;10.850;2022-12-11T09:48:59;9.57;;;7.30;;
8171;SDS011;4127;47.908;10.850;2022-12-11T09:51:29;9.57;;;8.07;;
8171;SDS011;4127;47.908;10.850;2022-12-11T09:54:04;9.47;;;8.50;;
8171;SDS011;4127;47.908;10.850;2022-12-11T09:56:35;9.30;;;7.43;;
8171;SDS011;4127;47.908;10.850;2022-12-11T10:13:52;7.73;;;6.63;;
8171;SDS011;4127;47.908;10.850;2022-12-11T10:16:39;9.63;;;8.63;;
8171;SDS011;4127;47.908;10.850;2022-12-11T10:19:16;12.37;;;9.47;;
8171;SDS011;4127;47.908;10.850;2022-12-11T10:21:47;12.23;;;10.03;;
8171;SDS011;4127;47.908;10.850;2022-12-11T10:27:38;8.73;;;7.83;;
8171;SDS011;4127;47.908;10.850;2022-12-11T10:35:35;8.07;;;6.77;;
8171;SDS011;4127;47.908;10.850;2022-12-11T10:38:30;7.00;;;6.00;;
8171;SDS011;4127;47.908;10.850;2022-12-11T10:41:03;7.53;;;6.37;;
8171;SDS011;4127;47.908;10.850;2022-12-11T10:43:35;12.53;;;8.73;;
8171;SDS011;4127;47.908;10.850;2022-12-11T10:46:05;10.90;;;8.90;;
8171;SDS011;4127;47.908;10.850;2022-12-11T10:53:59;7.97;;;6.73;;
8171;SDS011;4127;47.908;10.850;2022-12-11T10:56:48;6.30;;;5.67;;
8171;SDS011;4127;47.908;10.850;2022-12-11T10:59:21;7.93;;;6.60;;
8171;SDS011;4127;47.908;10.850;2022-12-11T11:02:20;7.33;;;6.40;;
8171;SDS011;4127;47.908;10.850;2022-12-11T11:04:52;7.47;;;6.07;;
8171;SDS011;4127;47.908;10.850;2022-12-11T11:07:21;7.93;;;6.20;;
8171;SDS011;4127;47.908;10.850;2022-12-11T11:12:59;8.27;;;6.57;;
8171;SDS011;4127;47.908;10.850;2022-12-11T11:15:28;9.03;;;7.43;;
8171;SDS011;4127;47.908;10.850;2022-12-11T11:18:10;8.83;;;6.80;;
8171;SDS011;4127;47.908;10.850;2022-12-11T11:20:53;7.93;;;6.77;;
8171;SDS011;4127;47.908;10.850;2022-12-11T11:23:20;8.77;;;5.90;;
8171;SDS011;4127;47.908;10.850;2022-12-11T11:25:50;10.47;;;8.40;;
8171;SDS011;4127;47.908;10.850;2022-12-11T11:29:21;8.53;;;7.60;;
8171;SDS011;4127;47.908;10.850;2022-12-11T11:31:30;18.50;;;14.27;;
8171;SDS011;4127;47.908;10.850;2022-12-11T11:34:00;11.33;;;9.60;;
8171;SDS011;4127;47.908;10.850;2022-12-11T11:36:32;13.63;;;11.63;;
8171;SDS011;4127;47.908;10.850;2022-12-11T11:44:51;9.70;;;7.57;;
8171;SDS011;4127;47.908;10.850;2022-12-11T11:47:33;10.70;;;8.77;;
8171;SDS011;4127;47.908;10.850;2022-12-11T11:52:50;9.80;;;8.10;;
8171;SDS011;4127;47.908;10.850;2022-12-11T11:55:35;9.27;;;8.07;;
8171;SDS011;4127;47.908;10.850;2022-12-11T11:58:24;9.20;;;7.60;;
8171;SDS011;4127;47.908;10.850;2022-12-11T12:00:58;10.57;;;7.47;;
8171;SDS011;4127;47.908;10.850;2022-12-11T12:03:46;14.60;;;10.17;;
8171;SDS011;4127;47.908;10.850;2022-12-11T12:11:39;11.90;;;8.73;;
8171;SDS011;4127;47.908;10.850;2022-12-11T12:14:20;9.63;;;8.27;;
8171;SDS011;4127;47.908;10.850;2022-12-11T12:25:31;10.43;;;8.53;;
8171;SDS011;4127;47.908;10.850;2022-12-11T12:30:43;10.33;;;9.00;;
8171;SDS011;4127;47.908;10.850;2022-12-11T12:36:39;11.83;;;10.33;;
8171;SDS011;4127;47.908;10.850;2022-12-11T12:47:27;9.00;;;7.30;;
8171;SDS011;4127;47.908;10.850;2022-12-11T12:49:58;8.80;;;7.83;;
8171;SDS011;4127;47.908;10.850;2022-12-11T12:52:33;9.53;;;7.80;;
8171;SDS011;4127;47.908;10.850;2022-12-11T12:55:24;9.83;;;8.33;;
8171;SDS011;4127;47.908;10.850;2022-12-11T12:57:58;10.53;;;9.20;;
8171;SDS011;4127;47.908;10.850;2022-12-11T13:00:28;14.27;;;10.03;;
8171;SDS011;4127;47.908;10.850;2022-12-11T13:03:02;11.13;;;9.13;;
8171;SDS011;4127;47.908;10.850;2022-12-11T13:05:40;14.83;;;11.00;;
8171;SDS011;4127;47.908;10.850;2022-12-11T13:08:08;12.50;;;10.07;;
8171;SDS011;4127;47.908;10.850;2022-12-11T13:10:37;10.97;;;9.33;;
8171;SDS011;4127;47.908;10.850;2022-12-11T13:13:24;9.77;;;8.00;;
8171;SDS011;4127;47.908;10.850;2022-12-11T13:18:45;8.07;;;6.60;;
8171;SDS011;4127;47.908;10.850;2022-12-11T13:24:11;11.27;;;9.17;;
8171;SDS011;4127;47.908;10.850;2022-12-11T13:26:40;9.27;;;7.73;;
8171;SDS011;4127;47.908;10.850;2022-12-11T13:29:27;10.97;;;9.17;;
8171;SDS011;4127;47.908;10.850;2022-12-11T13:34:56;10.70;;;8.57;;
8171;SDS011;4127;47.908;10.850;2022-12-11T13:37:29;11.23;;;9.10;;
8171;SDS011;4127;47.908;10.850;2022-12-11T13:40:02;10.10;;;9.10;;
8171;SDS011;4127;47.908;10.850;2022-12-11T13:42:34;9.90;;;8.90;;
8171;SDS011;4127;47.908;10.850;2022-12-11T13:45:16;14.53;;;10.93;;
8171;SDS011;4127;47.908;10.850;2022-12-11T13:47:46;19.47;;;14.20;;
8171;SDS011;4127;47.908;10.850;2022-12-11T13:50:14;15.07;;;11.30;;
8171;SDS011;4127;47.908;10.850;2022-12-11T13:53:00;14.17;;;11.20;;
8171;SDS011;4127;47.908;10.850;2022-12-11T13:55:29;16.90;;;13.20;;
8171;SDS011;4127;47.908;10.850;2022-12-11T13:57:58;12.67;;;10.77;;
8171;SDS011;4127;47.908;10.850;2022-12-11T14:00:29;11.33;;;9.63;;
8171;SDS011;4127;47.908;10.850;2022-12-11T14:02:59;9.47;;;8.47;;
8171;SDS011;4127;47.908;10.850;2022-12-11T14:05:29;11.17;;;9.17;;
8171;SDS011;4127;47.908;10.850;2022-12-11T14:07:57;11.93;;;9.40;;
8171;SDS011;4127;47.908;10.850;2022-12-11T14:10:31;11.47;;;9.60;;
8171;SDS011;4127;47.908;10.850;2022-12-11T14:15:27;10.57;;;9.20;;
8171;SDS011;4127;47.908;10.850;2022-12-11T14:17:55;13.57;;;10.97;;
8171;SDS011;4127;47.908;10.850;2022-12-11T14:20:30;13.97;;;10.60;;
8171;SDS011;4127;47.908;10.850;2022-12-11T14:25:33;14.10;;;11.33;;
8171;SDS011;4127;47.908;10.850;2022-12-11T14:27:59;14.80;;;11.70;;
8171;SDS011;4127;47.908;10.850;2022-12-11T14:30:27;15.97;;;12.83;;
8171;SDS011;4127;47.908;10.850;2022-12-11T14:33:01;15.53;;;11.90;;
8171;SDS011;4127;47.908;10.850;2022-12-11T14:35:34;17.47;;;13.20;;
8171;SDS011;4127;47.908;10.850;2022-12-11T14:38:19;28.57;;;19.03;;
8171;SDS011;4127;47.908;10.850;2022-12-11T14:40:55;48.30;;;33.87;;
8171;SDS011;4127;47.908;10.850;2022-12-11T14:43:32;31.37;;;22.47;;
8171;SDS011;4127;47.908;10.850;2022-12-11T14:46:05;20.87;;;16.83;;
8171;SDS011;4127;47.908;10.850;2022-12-11T14:48:38;17.93;;;14.67;;
8171;SDS011;4127;47.908;10.850;2022-12-11T14:51:12;17.57;;;14.67;;
8171;SDS011;4127;47.908;10.850;2022-12-11T14:53:42;17.40;;;14.23;;
8171;SDS011;4127;47.908;10.850;2022-12-11T14:56:15;14.03;;;11.90;;
8171;SDS011;4127;47.908;10.850;2022-12-11T14:58:54;28.73;;;20.80;;
8171;SDS011;4127;47.908;10.850;2022-12-11T15:04:04;18.23;;;15.30;;
8171;SDS011;4127;47.908;10.850;2022-12-11T15:06:45;15.27;;;13.10;;
8171;SDS011;4127;47.908;10.850;2022-12-11T15:09:17;15.57;;;12.50;;
8171;SDS011;4127;47.908;10.850;2022-12-11T15:11:47;14.43;;;12.07;;
8171;SDS011;4127;47.908;10.850;2022-12-11T15:14:17;13.43;;;11.03;;
8171;SDS011;4127;47.908;10.850;2022-12-11T15:16:45;13.63;;;11.17;;
8171;SDS011;4127;47.908;10.850;2022-12-11T15:19:21;16.43;;;14.07;;
8171;SDS011;4127;47.908;10.850;2022-12-11T15:21:54;16.07;;;14.33;;
8171;SDS011;4127;47.908;10.850;2022-12-11T15:27:06;17.07;;;12.93;;
8171;SDS011;4127;47.908;10.850;2022-12-11T15:29:51;18.23;;;13.90;;
8171;SDS011;4127;47.908;10.850;2022-12-11T15:32:18;17.83;;;13.20;;
8171;SDS011;4127;47.908;10.850;2022-12-11T15:39:47;25.30;;;20.60;;
8171;SDS011;4127;47.908;10.850;2022-12-11T15:46:22;29.90;;;21.87;;
8171;SDS011;4127;47.908;10.850;2022-12-11T16:01:29;26.97;;;19.07;;
8171;SDS011;4127;47.908;10.850;2022-12-11T16:04:42;29.37;;;20.83;;
8171;SDS011;4127;47.908;10.850;2022-12-11T16:16:03;75.63;;;44.13;;
8171;SDS011;4127;47.908;10.850;2022-12-11T16:22:26;31.33;;;20.90;;
8171;SDS011;4127;47.908;10.850;2022-12-11T16:26:16;26.23;;;20.60;;
8171;SDS011;4127;47.908;10.850;2022-12-11T16:33:23;23.17;;;18.13;;
8171;SDS011;4127;47.908;10.850;2022-12-11T16:36:18;19.37;;;15.80;;
8171;SDS011;4127;47.908;10.850;2022-12-11T16:39:37;20.83;;;15.57;;
8171;SDS011;4127;47.908;10.850;2022-12-11T16:42:05;19.17;;;14.70;;
8171;SDS011;4127;47.908;10.850;2022-12-11T16:44:32;16.40;;;13.40;;
8171;SDS011;4127;47.908;10.850;2022-12-11T16:51:28;18.43;;;14.00;;
8171;SDS011;4127;47.908;10.850;2022-12-11T16:54:35;22.43;;;17.20;;
8171;SDS011;4127;47.908;10.850;2022-12-11T16:58:03;18.90;;;14.73;;
8171;SDS011;4127;47.908;10.850;2022-12-11T17:04:24;14.30;;;10.87;;
8171;SDS011;4127;47.908;10.850;2022-12-11T17:10:46;15.10;;;10.87;;
8171;SDS011;4127;47.908;10.850;2022-12-11T17:13:56;13.43;;;11.10;;
8171;SDS011;4127;47.908;10.850;2022-12-11T17:28:16;12.47;;;9.23;;
8171;SDS011;4127;47.908;10.850;2022-12-11T17:31:14;11.97;;;8.90;;
8171;SDS011;4127;47.908;10.850;2022-12-11T17:34:26;13.53;;;10.70;;
8171;SDS011;4127;47.908;10.850;2022-12-11T17:37:25;14.20;;;9.63;;
8171;SDS011;4127;47.908;10.850;2022-12-11T17:40:48;12.17;;;9.37;;
8171;SDS011;4127;47.908;10.850;2022-12-11T17:48:24;12.33;;;9.33;;
8171;SDS011;4127;47.908;10.850;2022-12-11T17:51:59;11.13;;;8.97;;
8171;SDS011;4127;47.908;10.850;2022-12-11T17:55:24;13.77;;;9.53;;
8171;SDS011;4127;47.908;10.850;2022-12-11T17:59:11;12.60;;;9.80;;
8171;SDS011;4127;47.908;10.850;2022-12-11T18:06:01;10.87;;;9.13;;
8171;SDS011;4127;47.908;10.850;2022-12-11T18:09:05;11.80;;;8.90;;
8171;SDS011;4127;47.908;10.850;2022-12-11T18:24:04;14.07;;;11.13;;
8171;SDS011;4127;47.908;10.850;2022-12-11T18:27:14;21.30;;;14.80;;
8171;SDS011;4127;47.908;10.850;2022-12-11T18:33:30;22.43;;;14.70;;
8171;SDS011;4127;47.908;10.850;2022-12-11T18:36:53;18.63;;;13.37;;
8171;SDS011;4127;47.908;10.850;2022-12-11T18:47:26;12.67;;;10.23;;
8171;SDS011;4127;47.908;10.850;2022-12-11T18:51:13;12.67;;;9.70;;
8171;SDS011;4127;47.908;10.850;2022-12-11T19:05:50;13.23;;;9.67;;
8171;SDS011;4127;47.908;10.850;2022-12-11T19:09:22;13.53;;;9.50;;
8171;SDS011;4127;47.908;10.850;2022-12-11T19:12:44;13.57;;;9.57;;
8171;SDS011;4127;47.908;10.850;2022-12-11T19:15:11;12.67;;;9.63;;
8171;SDS011;4127;47.908;10.850;2022-12-11T19:17:52;13.67;;;9.27;;
8171;SDS011;4127;47.908;10.850;2022-12-11T19:20:22;12.60;;;9.73;;